Time;durP1;ratioP1;P1;durP2;ratioP2;P2;SDS_P1;SDS_P2;PMS_P1;PMS_P2;Temp;Humidity;BMP_temperature;BMP_pressure;BME280_temperature;BME280_humidity;BME280_pressure;Samples;Min_cycle;Max_cycle;Signal;HPM_P1;HPM_P2
2023/01/04 15:25:55;;;;;;;0.70;0.70;;;;;;;;;;5123486;23;20254;-74
2023/01/04 15:28:23;;;;;;;0.60;0.60;;;;;;;;;;4954157;28;20179;-73
2023/01/04 15:30:48;;;;;;;0.70;0.70;;;;;;;;;;4956564;28;20202;-73
2023/01/04 15:33:15;;;;;;;0.60;0.60;;;;;;;;;;4954276;28;20179;-74
2023/01/04 15:35:41;;;;;;;0.50;0.50;;;;;;;;;;4958945;28;20709;-73
2023/01/04 15:38:07;;;;;;;0.50;0.50;;;;;;;;;;4957748;28;20210;-73
2023/01/04 15:40:34;;;;;;;0.53;0.53;;;;;;;;;;4955999;28;20656;-75
2023/01/04 15:43:00;;;;;;;0.60;0.60;;;;;;;;;;4970758;28;20656;-73
2023/01/04 15:45:30;;;;;;;0.70;0.70;;;;;;;;;;4972436;28;20275;-73
2023/01/04 15:48:01;;;;;;;0.60;0.60;;;;;;;;;;4972875;28;20182;-72
2023/01/04 15:50:27;;;;;;;0.60;0.60;;;;;;;;;;4972820;28;20185;-73
2023/01/04 15:52:53;;;;;;;0.67;0.67;;;;;;;;;;4972197;28;20192;-74
2023/01/04 15:55:19;;;;;;;0.60;0.60;;;;;;;;;;4972779;28;20208;-74
2023/01/04 15:57:45;;;;;;;0.70;0.70;;;;;;;;;;4972888;28;20205;-74
2023/01/04 16:00:11;;;;;;;0.63;0.63;;;;;;;;;;4972008;28;20240;-75
2023/01/04 16:02:37;;;;;;;0.67;0.67;;;;;;;;;;4972079;28;20182;-74
2023/01/04 16:05:03;;;;;;;0.60;0.60;;;;;;;;;;4972341;28;20236;-74
2023/01/04 16:07:29;;;;;;;0.60;0.60;;;;;;;;;;4972527;28;20182;-75
2023/01/04 16:09:55;;;;;;;0.60;0.60;;;;;;;;;;4972494;28;20481;-76
2023/01/04 16:15:06;;;;;;;0.60;0.60;;;;;;;;;;4953145;28;20285;-74
2023/01/04 16:17:33;;;;;;;0.60;0.60;;;;;;;;;;4953204;29;20202;-73
2023/01/04 16:19:58;;;;;;;0.50;0.50;;;;;;;;;;4953057;29;20183;-75
2023/01/04 16:22:25;;;;;;;0.60;0.60;;;;;;;;;;4953542;29;20193;-73
2023/01/04 16:24:51;;;;;;;0.60;0.60;;;;;;;;;;4953405;28;20309;-72
2023/01/04 16:27:17;;;;;;;0.60;0.60;;;;;;;;;;4955301;29;20273;-74
2023/01/04 16:29:43;;;;;;;0.50;0.50;;;;;;;;;;4955554;29;20364;-74
2023/01/04 16:32:09;;;;;;;0.70;0.70;;;;;;;;;;4954549;29;20179;-73
2023/01/04 16:34:35;;;;;;;0.60;0.60;;;;;;;;;;4953190;28;20254;-73
2023/01/04 16:37:01;;;;;;;0.50;0.50;;;;;;;;;;4953666;29;20178;-73
2023/01/04 16:39:27;;;;;;;0.60;0.60;;;;;;;;;;4954268;29;20270;-73
2023/01/04 16:41:53;;;;;;;0.60;0.60;;;;;;;;;;4953332;29;20285;-74
2023/01/04 16:44:20;;;;;;;0.60;0.60;;;;;;;;;;4951956;28;20297;-75
2023/01/04 16:46:46;;;;;;;0.67;0.67;;;;;;;;;;4952543;29;20644;-74
2023/01/04 16:49:13;;;;;;;0.70;0.70;;;;;;;;;;4952588;29;20605;-74
2023/01/04 16:51:39;;;;;;;0.70;0.70;;;;;;;;;;4952880;29;20178;-74
2023/01/04 16:54:06;;;;;;;0.60;0.60;;;;;;;;;;4952398;28;20200;-74
2023/01/04 16:56:33;;;;;;;0.70;0.70;;;;;;;;;;4952867;29;20631;-74
2023/01/04 16:59:00;;;;;;;0.60;0.60;;;;;;;;;;4952924;29;20189;-75
2023/01/04 17:01:27;;;;;;;0.70;0.70;;;;;;;;;;4952798;29;20183;-73
2023/01/04 17:03:54;;;;;;;0.70;0.70;;;;;;;;;;4952300;28;20210;-73
2023/01/04 17:06:25;;;;;;;0.60;0.60;;;;;;;;;;4952866;29;20750;-73
2023/01/04 17:08:51;;;;;;;0.67;0.67;;;;;;;;;;4952877;29;20175;-74
2023/01/04 17:11:19;;;;;;;0.60;0.60;;;;;;;;;;4955509;28;20261;-74
2023/01/04 17:13:44;;;;;;;0.70;0.70;;;;;;;;;;4956266;29;20326;-72
2023/01/04 17:16:11;;;;;;;0.57;0.57;;;;;;;;;;4956865;28;20697;-74
2023/01/04 17:18:37;;;;;;;0.60;0.60;;;;;;;;;;4956656;29;20170;-74
2023/01/04 17:21:06;;;;;;;0.60;0.60;;;;;;;;;;4956443;29;20229;-73
2023/01/04 17:23:35;;;;;;;0.50;0.50;;;;;;;;;;4955601;29;20210;-75
2023/01/04 17:26:02;;;;;;;0.60;0.60;;;;;;;;;;4955914;28;20594;-74
2023/01/04 17:28:29;;;;;;;0.50;0.50;;;;;;;;;;4956782;29;20179;-74
2023/01/04 17:30:55;;;;;;;0.50;0.50;;;;;;;;;;4955804;28;20189;-75
2023/01/04 17:33:21;;;;;;;0.60;0.60;;;;;;;;;;4956614;29;20221;-74
2023/01/04 17:35:47;;;;;;;0.60;0.60;;;;;;;;;;4955921;29;20203;-72
2023/01/04 17:38:13;;;;;;;0.60;0.60;;;;;;;;;;4956172;29;20249;-75
2023/01/04 17:40:39;;;;;;;0.50;0.50;;;;;;;;;;4956550;29;20221;-74
2023/01/04 17:43:05;;;;;;;0.70;0.70;;;;;;;;;;4956599;29;20171;-74
2023/01/04 17:45:32;;;;;;;0.67;0.67;;;;;;;;;;4956367;29;20203;-73
2023/01/04 17:47:58;;;;;;;0.70;0.70;;;;;;;;;;4956030;29;20257;-74
2023/01/04 17:50:24;;;;;;;0.60;0.60;;;;;;;;;;4955540;29;20210;-74
2023/01/04 17:52:50;;;;;;;0.60;0.60;;;;;;;;;;4954822;29;20180;-75
2023/01/04 17:55:16;;;;;;;0.70;0.70;;;;;;;;;;4955558;29;20289;-74
2023/01/04 17:57:42;;;;;;;0.50;0.50;;;;;;;;;;4955317;29;20666;-73
2023/01/04 18:00:09;;;;;;;0.40;0.40;;;;;;;;;;4955352;29;20639;-73
2023/01/04 18:02:35;;;;;;;0.60;0.60;;;;;;;;;;4966445;28;20614;-74
2023/01/04 18:05:01;;;;;;;0.50;0.50;;;;;;;;;;4974254;28;20724;-74
2023/01/04 18:07:28;;;;;;;0.60;0.60;;;;;;;;;;4974382;28;20212;-74
2023/01/04 18:09:54;;;;;;;0.50;0.50;;;;;;;;;;4974658;28;20186;-74
2023/01/04 18:12:21;;;;;;;0.60;0.60;;;;;;;;;;4974518;28;20273;-74
2023/01/04 18:14:47;;;;;;;0.70;0.70;;;;;;;;;;4974470;28;20225;-74
2023/01/04 18:17:13;;;;;;;0.60;0.60;;;;;;;;;;4974835;28;20305;-74
2023/01/04 18:19:39;;;;;;;0.60;0.60;;;;;;;;;;4974799;28;20219;-75
2023/01/04 18:22:05;;;;;;;0.50;0.50;;;;;;;;;;4974224;28;20642;-76
2023/01/04 18:24:33;;;;;;;0.70;0.70;;;;;;;;;;4973649;28;20288;-75
2023/01/04 18:26:59;;;;;;;0.50;0.50;;;;;;;;;;4973887;28;20261;-74
2023/01/04 18:29:25;;;;;;;0.70;0.70;;;;;;;;;;4974354;28;20186;-75
2023/01/04 18:31:51;;;;;;;0.63;0.63;;;;;;;;;;4974095;28;20210;-73
2023/01/04 18:34:17;;;;;;;0.60;0.60;;;;;;;;;;4973472;28;20222;-75
2023/01/04 18:36:43;;;;;;;0.50;0.50;;;;;;;;;;4956459;28;20182;-72
2023/01/04 18:39:10;;;;;;;0.60;0.60;;;;;;;;;;4973869;28;20592;-73
2023/01/04 18:41:36;;;;;;;0.60;0.60;;;;;;;;;;4973657;28;20181;-74
2023/01/04 18:44:02;;;;;;;0.67;0.67;;;;;;;;;;4965746;28;20257;-73
2023/01/04 18:46:28;;;;;;;0.60;0.60;;;;;;;;;;4957434;29;20182;-74
2023/01/04 18:48:56;;;;;;;0.53;0.53;;;;;;;;;;4957056;29;20187;-75
2023/01/04 18:51:22;;;;;;;0.60;0.60;;;;;;;;;;4956192;28;20420;-74
2023/01/04 18:53:48;;;;;;;0.50;0.50;;;;;;;;;;4953465;29;20179;-74
2023/01/04 18:56:16;;;;;;;0.60;0.60;;;;;;;;;;4953956;28;20195;-77
2023/01/04 18:58:42;;;;;;;0.70;0.70;;;;;;;;;;4952926;29;20190;-74
2023/01/04 19:01:09;;;;;;;0.63;0.63;;;;;;;;;;4952092;29;20238;-76
2023/01/04 19:03:36;;;;;;;0.60;0.60;;;;;;;;;;4952948;29;20324;-78
2023/01/04 19:06:08;;;;;;;0.60;0.60;;;;;;;;;;4953607;28;20198;-74
2023/01/04 19:08:35;;;;;;;0.50;0.50;;;;;;;;;;4953495;29;20190;-73
2023/01/04 19:11:01;;;;;;;0.80;0.80;;;;;;;;;;4953873;29;20277;-74
2023/01/04 19:13:27;;;;;;;0.50;0.50;;;;;;;;;;4952110;28;20424;-74
2023/01/04 19:15:54;;;;;;;0.70;0.70;;;;;;;;;;4951246;28;20981;-74
2023/01/04 19:18:20;;;;;;;0.50;0.50;;;;;;;;;;4936193;29;20258;-72
2023/01/04 19:20:45;;;;;;;0.50;0.50;;;;;;;;;;4933858;29;20207;-73
2023/01/04 19:23:12;;;;;;;0.60;0.60;;;;;;;;;;4933121;29;20179;-73
2023/01/04 19:25:38;;;;;;;0.60;0.60;;;;;;;;;;4933472;29;20730;-74
2023/01/04 19:28:05;;;;;;;0.60;0.60;;;;;;;;;;4933821;29;21854;-74
2023/01/04 19:30:31;;;;;;;0.70;0.70;;;;;;;;;;4934017;29;20187;-73
2023/01/04 19:32:57;;;;;;;0.63;0.63;;;;;;;;;;4934789;28;20245;-74
2023/01/04 19:35:23;;;;;;;0.60;0.60;;;;;;;;;;4935247;29;20622;-73
2023/01/04 19:37:49;;;;;;;0.60;0.60;;;;;;;;;;4933401;29;20183;-77
2023/01/04 19:40:15;;;;;;;0.70;0.70;;;;;;;;;;4940867;29;20542;-76
2023/01/04 19:42:43;;;;;;;0.50;0.50;;;;;;;;;;4938335;29;20659;-75
2023/01/04 19:45:09;;;;;;;0.60;0.60;;;;;;;;;;4940541;29;20298;-73
2023/01/04 19:47:35;;;;;;;0.60;0.60;;;;;;;;;;4948298;28;20190;-74
2023/01/04 19:50:01;;;;;;;0.60;0.60;;;;;;;;;;4933705;28;20197;-74
2023/01/04 19:52:29;;;;;;;0.63;0.63;;;;;;;;;;4932996;28;20725;-75
2023/01/04 19:54:55;;;;;;;0.70;0.70;;;;;;;;;;4940694;29;20675;-74
2023/01/04 19:57:21;;;;;;;0.60;0.60;;;;;;;;;;4937532;28;20278;-75
2023/01/04 19:59:47;;;;;;;0.70;0.70;;;;;;;;;;4948005;29;20709;-75
2023/01/04 20:02:13;;;;;;;0.60;0.60;;;;;;;;;;4952663;29;20249;-73
2023/01/04 20:04:39;;;;;;;0.70;0.70;;;;;;;;;;4952131;28;20214;-74
2023/01/04 20:07:05;;;;;;;0.60;0.60;;;;;;;;;;4952614;29;20558;-73
2023/01/04 20:09:33;;;;;;;0.70;0.70;;;;;;;;;;4952768;29;20186;-73
2023/01/04 20:11:59;;;;;;;0.70;0.70;;;;;;;;;;4952907;29;20183;-74
2023/01/04 20:14:25;;;;;;;0.60;0.60;;;;;;;;;;4952094;28;20213;-74
2023/01/04 20:16:51;;;;;;;0.70;0.70;;;;;;;;;;4952719;29;20190;-75
2023/01/04 20:19:17;;;;;;;0.70;0.70;;;;;;;;;;4952541;28;20589;-74
2023/01/04 20:21:43;;;;;;;0.60;0.60;;;;;;;;;;4952590;29;20186;-74
2023/01/04 20:24:09;;;;;;;0.63;0.63;;;;;;;;;;4951746;28;20613;-74
2023/01/04 20:26:35;;;;;;;0.70;0.70;;;;;;;;;;4952838;29;20202;-74
2023/01/04 20:29:03;;;;;;;0.70;0.70;;;;;;;;;;4952883;29;20191;-73
2023/01/04 20:31:29;;;;;;;0.67;0.67;;;;;;;;;;4952462;29;20190;-74
2023/01/04 20:33:55;;;;;;;0.70;0.70;;;;;;;;;;4951806;28;20242;-74
2023/01/04 20:36:22;;;;;;;0.60;0.60;;;;;;;;;;4952343;29;20190;-74
2023/01/04 20:38:48;;;;;;;0.50;0.50;;;;;;;;;;4951244;29;20182;-73
2023/01/04 20:41:15;;;;;;;0.60;0.60;;;;;;;;;;4952231;29;20190;-73
2023/01/04 20:43:42;;;;;;;0.60;0.60;;;;;;;;;;4951783;29;20195;-74
2023/01/04 20:46:15;;;;;;;0.67;0.67;;;;;;;;;;4952879;28;20198;-74
2023/01/04 20:48:41;;;;;;;0.70;0.70;;;;;;;;;;4941765;29;20186;-75
2023/01/04 20:51:09;;;;;;;0.70;0.70;;;;;;;;;;4921014;28;20226;-74
2023/01/04 20:53:35;;;;;;;0.60;0.60;;;;;;;;;;4935899;29;20193;-74
2023/01/04 20:56:12;;;;;;;0.70;0.70;;;;;;;;;;4936467;29;20352;-74
2023/01/04 20:58:38;;;;;;;0.60;0.60;;;;;;;;;;4936443;29;20600;-73
2023/01/04 21:01:05;;;;;;;0.60;0.60;;;;;;;;;;4938331;28;20198;-74
2023/01/04 21:03:31;;;;;;;0.70;0.70;;;;;;;;;;4935988;29;20277;-74
2023/01/04 21:06:00;;;;;;;0.60;0.60;;;;;;;;;;4936446;29;20274;-74
2023/01/04 21:08:26;;;;;;;0.63;0.63;;;;;;;;;;4939457;28;20190;-74
2023/01/04 21:10:51;;;;;;;0.70;0.70;;;;;;;;;;4948078;29;20190;-74
2023/01/04 21:13:17;;;;;;;0.60;0.60;;;;;;;;;;4955458;29;20273;-74
2023/01/04 21:15:43;;;;;;;0.60;0.60;;;;;;;;;;4955619;28;20210;-75
2023/01/04 21:18:10;;;;;;;0.50;0.50;;;;;;;;;;4955081;29;20519;-74
2023/01/04 21:20:39;;;;;;;0.50;0.50;;;;;;;;;;4955923;29;20274;-74
2023/01/04 21:23:05;;;;;;;0.60;0.60;;;;;;;;;;4955177;29;20191;-76
2023/01/04 21:25:31;;;;;;;0.60;0.60;;;;;;;;;;4955543;28;20277;-75
2023/01/04 21:27:59;;;;;;;0.70;0.70;;;;;;;;;;4955696;29;20265;-74
2023/01/04 21:30:25;;;;;;;0.60;0.60;;;;;;;;;;4955318;29;20557;-74
2023/01/04 21:32:51;;;;;;;0.60;0.60;;;;;;;;;;4954726;28;20647;-74
2023/01/04 21:35:17;;;;;;;0.60;0.60;;;;;;;;;;4955621;28;20206;-75
2023/01/04 21:37:43;;;;;;;0.77;0.77;;;;;;;;;;4955310;29;20205;-75
2023/01/04 21:40:09;;;;;;;0.60;0.60;;;;;;;;;;4955585;29;20277;-75
2023/01/04 21:42:35;;;;;;;0.70;0.70;;;;;;;;;;4954944;29;20322;-75
2023/01/04 21:45:01;;;;;;;0.60;0.60;;;;;;;;;;4954566;28;20308;-76
2023/01/04 21:47:29;;;;;;;0.70;0.70;;;;;;;;;;4955125;29;20189;-75
2023/01/04 21:49:55;;;;;;;0.70;0.70;;;;;;;;;;4955304;29;20195;-75
2023/01/04 21:52:21;;;;;;;0.57;0.57;;;;;;;;;;4938671;29;20201;-77
2023/01/04 21:54:48;;;;;;;0.70;0.70;;;;;;;;;;4935649;29;20605;-76
2023/01/04 21:57:14;;;;;;;0.60;0.60;;;;;;;;;;4935388;29;20691;-78
2023/01/04 21:59:39;;;;;;;0.70;0.70;;;;;;;;;;4936196;29;20179;-75
2023/01/04 22:02:05;;;;;;;0.60;0.60;;;;;;;;;;4936224;29;20179;-75
2023/01/04 22:04:32;;;;;;;0.60;0.60;;;;;;;;;;4935573;29;20226;-76
2023/01/04 22:06:58;;;;;;;0.70;0.70;;;;;;;;;;4936086;29;20210;-76
2023/01/04 22:09:24;;;;;;;0.60;0.60;;;;;;;;;;4935885;29;20191;-76
2023/01/04 22:11:50;;;;;;;0.70;0.70;;;;;;;;;;4935870;29;20175;-75
2023/01/04 22:14:16;;;;;;;0.70;0.70;;;;;;;;;;4935260;29;20202;-76
2023/01/04 22:16:42;;;;;;;0.60;0.60;;;;;;;;;;4936043;29;20187;-76
2023/01/04 22:19:11;;;;;;;0.80;0.80;;;;;;;;;;4936456;29;20175;-76
2023/01/04 22:21:37;;;;;;;0.70;0.70;;;;;;;;;;4936796;29;20179;-76
2023/01/04 22:24:03;;;;;;;0.50;0.50;;;;;;;;;;4936177;29;20218;-74
2023/01/04 22:26:29;;;;;;;0.70;0.70;;;;;;;;;;4936487;29;20234;-75
2023/01/04 22:28:55;;;;;;;0.60;0.60;;;;;;;;;;4936303;29;20337;-76
2023/01/04 22:31:21;;;;;;;0.70;0.70;;;;;;;;;;4936135;29;20213;-74
2023/01/04 22:33:47;;;;;;;0.60;0.60;;;;;;;;;;4935483;29;20175;-75
2023/01/04 22:36:14;;;;;;;0.67;0.67;;;;;;;;;;4935863;29;20198;-76
2023/01/04 22:38:40;;;;;;;0.70;0.70;;;;;;;;;;4935717;29;20183;-75
2023/01/04 22:41:07;;;;;;;0.60;0.60;;;;;;;;;;4935779;29;20646;-76
2023/01/04 22:43:33;;;;;;;0.70;0.70;;;;;;;;;;4935027;29;20215;-75
2023/01/04 22:45:59;;;;;;;0.60;0.60;;;;;;;;;;4935389;29;20691;-75
2023/01/04 22:48:26;;;;;;;0.70;0.70;;;;;;;;;;4935410;29;20183;-76
2023/01/04 22:50:52;;;;;;;0.70;0.70;;;;;;;;;;4935254;29;20191;-75
2023/01/04 22:53:17;;;;;;;0.60;0.60;;;;;;;;;;4934848;29;20267;-76
2023/01/04 22:55:43;;;;;;;0.53;0.53;;;;;;;;;;4934900;29;20559;-75
2023/01/04 22:58:09;;;;;;;0.70;0.70;;;;;;;;;;4935235;29;20183;-75
2023/01/04 23:00:35;;;;;;;0.63;0.63;;;;;;;;;;4934995;29;20179;-75
2023/01/04 23:03:01;;;;;;;0.70;0.70;;;;;;;;;;4934543;29;20183;-75
2023/01/04 23:05:28;;;;;;;0.70;0.70;;;;;;;;;;4934784;29;20656;-76
2023/01/04 23:07:54;;;;;;;0.60;0.60;;;;;;;;;;4934724;29;20187;-76
2023/01/04 23:10:20;;;;;;;0.63;0.63;;;;;;;;;;4934755;29;20265;-76
2023/01/04 23:12:46;;;;;;;0.60;0.60;;;;;;;;;;4934517;29;20364;-75
2023/01/04 23:15:12;;;;;;;0.60;0.60;;;;;;;;;;4934684;29;20659;-75
2023/01/04 23:17:38;;;;;;;0.70;0.70;;;;;;;;;;4934862;29;20258;-77
2023/01/04 23:20:04;;;;;;;0.60;0.60;;;;;;;;;;4934800;29;20175;-77
2023/01/04 23:22:30;;;;;;;0.70;0.70;;;;;;;;;;4934521;29;20568;-77
2023/01/04 23:24:56;;;;;;;0.70;0.70;;;;;;;;;;4934110;29;20239;-76
2023/01/04 23:27:22;;;;;;;0.67;0.67;;;;;;;;;;4934825;29;20381;-77
2023/01/04 23:29:48;;;;;;;0.63;0.63;;;;;;;;;;4934935;29;20545;-78
2023/01/04 23:32:14;;;;;;;0.63;0.63;;;;;;;;;;4934471;29;20249;-77
2023/01/04 23:34:40;;;;;;;0.60;0.60;;;;;;;;;;4934098;29;20203;-76
2023/01/04 23:37:06;;;;;;;0.70;0.70;;;;;;;;;;4934617;29;20179;-76
2023/01/04 23:39:32;;;;;;;0.70;0.70;;;;;;;;;;4934501;29;20186;-77
2023/01/04 23:41:58;;;;;;;0.70;0.70;;;;;;;;;;4940322;29;20175;-77
2023/01/04 23:44:31;;;;;;;0.70;0.70;;;;;;;;;;4939089;29;20687;-76
2023/01/04 23:47:00;;;;;;;0.50;0.50;;;;;;;;;;4937287;29;20179;-76
2023/01/04 23:49:28;;;;;;;0.70;0.70;;;;;;;;;;4937745;29;20313;-75
2023/01/04 23:51:54;;;;;;;0.63;0.63;;;;;;;;;;4938720;29;20194;-76
2023/01/04 23:54:20;;;;;;;0.60;0.60;;;;;;;;;;4938563;29;20203;-75
2023/01/04 23:56:46;;;;;;;0.60;0.60;;;;;;;;;;4936114;29;20214;-76
2023/01/04 23:59:12;;;;;;;0.70;0.70;;;;;;;;;;4934545;29;20230;-76
